createdAt,value
2019-02-27T00:00:29.733Z,37.65
2019-02-27T00:03:01.839Z,42.10
2019-02-27T00:05:34.148Z,39.18
2019-02-27T00:08:03.234Z,41.95
2019-02-27T00:10:39.297Z,38.85
2019-02-27T00:13:16.877Z,45.05
2019-02-27T00:15:45.846Z,38.55
2019-02-27T00:18:15.485Z,40.83
2019-02-27T00:20:46.838Z,43.83
2019-02-27T00:23:16.189Z,38.70
2019-02-27T00:25:47.033Z,38.75
2019-02-27T00:28:17.601Z,42.03
2019-02-27T00:30:52.253Z,41.95
2019-02-27T00:33:26.207Z,41.70
2019-02-27T00:35:55.131Z,41.60
2019-02-27T00:38:25.167Z,39.63
2019-02-27T00:40:54.851Z,36.83
2019-02-27T00:43:25.988Z,39.70
2019-02-27T00:45:59.265Z,41.55
2019-02-27T00:48:26.164Z,41.65
2019-02-27T00:51:04.367Z,37.95
2019-02-27T00:53:39.711Z,39.13
2019-02-27T00:56:12.255Z,38.67
2019-02-27T00:58:43.247Z,40.65
2019-02-27T01:01:12.675Z,43.55
2019-02-27T01:03:45.129Z,43.15
2019-02-27T01:06:14.797Z,39.83
2019-02-27T01:08:44.436Z,39.63
2019-02-27T01:11:18.212Z,40.52
2019-02-27T01:13:44.404Z,39.58
2019-02-27T01:16:17.216Z,37.60
2019-02-27T01:18:45.927Z,40.05
2019-02-27T01:21:19.845Z,37.03
2019-02-27T01:23:52.283Z,39.35
2019-02-27T01:26:23.392Z,39.55
2019-02-27T01:28:52.373Z,40.12
2019-02-27T01:31:21.927Z,39.18
2019-02-27T01:33:52.106Z,40.25
2019-02-27T01:36:24.233Z,38.28
2019-02-27T01:45:07.062Z,40.23
2019-02-27T01:47:40.720Z,38.83
2019-02-27T01:50:23.288Z,42.23
2019-02-27T01:52:58.221Z,35.48
2019-02-27T01:55:29.898Z,39.60
2019-02-27T01:58:03.829Z,38.30
2019-02-27T02:00:33.284Z,42.65
2019-02-27T02:03:06.740Z,44.93
2019-02-27T02:05:35.355Z,38.38
2019-02-27T02:08:18.114Z,41.80
2019-02-27T02:10:45.908Z,39.53
2019-02-27T02:13:20.364Z,38.05
2019-02-27T02:15:58.137Z,37.10
2019-02-27T02:18:35.430Z,42.58
2019-02-27T02:21:18.091Z,44.30
2019-02-27T02:24:03.778Z,41.90
2019-02-27T02:26:35.009Z,39.73
2019-02-27T02:29:21.011Z,42.70
2019-02-27T02:31:52.595Z,37.50
2019-02-27T02:34:32.581Z,37.95
2019-02-27T02:37:06.127Z,41.20
2019-02-27T02:39:54.766Z,41.58
2019-02-27T02:42:24.574Z,40.63
2019-02-27T02:44:58.667Z,42.50
2019-02-27T02:47:32.010Z,38.95
2019-02-27T02:50:04.841Z,40.38
2019-02-27T02:52:40.937Z,41.85
2019-02-27T02:55:12.577Z,40.55
2019-02-27T02:57:59.221Z,41.13
2019-02-27T03:00:39.096Z,45.92
2019-02-27T03:03:13.449Z,44.08
2019-02-27T03:05:58.557Z,42.30
2019-02-27T03:08:25.132Z,42.08
2019-02-27T03:11:18.103Z,40.73
2019-02-27T03:13:55.805Z,40.08
2019-02-27T03:16:33.308Z,41.37
2019-02-27T03:19:25.230Z,45.23
2019-02-27T03:22:03.628Z,42.17
2019-02-27T03:24:34.941Z,41.80
2019-02-27T03:27:21.857Z,45.28
2019-02-27T03:29:55.518Z,43.25
2019-02-27T03:32:44.249Z,42.53
2019-02-27T03:35:17.663Z,50.00
2019-02-27T03:37:58.265Z,41.65
2019-02-27T03:40:34.689Z,44.93
2019-02-27T03:43:10.414Z,39.85
2019-02-27T03:45:42.527Z,40.55
2019-02-27T03:48:14.523Z,39.08
2019-02-27T03:50:49.938Z,45.98
2019-02-27T03:53:24.278Z,38.73
2019-02-27T03:56:08.606Z,42.62
2019-02-27T03:58:57.772Z,43.30
2019-02-27T04:01:31.433Z,40.95
2019-02-27T04:04:06.580Z,40.23
2019-02-27T04:06:56.355Z,42.88
2019-02-27T04:09:24.479Z,41.75
2019-02-27T04:11:54.887Z,39.55
2019-02-27T04:14:27.902Z,44.33
2019-02-27T04:16:57.138Z,39.67
2019-02-27T04:19:28.197Z,43.50
2019-02-27T04:22:01.060Z,42.08
2019-02-27T04:24:33.120Z,41.53
2019-02-27T04:27:05.336Z,42.05
2019-02-27T04:29:41.127Z,42.48
2019-02-27T04:32:12.490Z,40.92
2019-02-27T04:34:43.083Z,39.70
2019-02-27T04:37:12.175Z,43.13
2019-02-27T04:39:41.160Z,44.25
2019-02-27T04:42:13.305Z,40.95
2019-02-27T04:44:42.286Z,44.98
2019-02-27T04:47:15.411Z,47.30
2019-02-27T04:49:44.561Z,45.63
2019-02-27T04:52:17.419Z,43.47
2019-02-27T04:54:46.457Z,43.05
2019-02-27T04:57:17.654Z,39.50
2019-02-27T04:59:52.315Z,42.85
2019-02-27T05:02:22.783Z,40.10
2019-02-27T05:04:52.032Z,40.98
2019-02-27T05:07:20.999Z,44.40
2019-02-27T05:09:53.438Z,40.52
2019-02-27T05:12:24.019Z,41.53
2019-02-27T05:14:52.994Z,44.50
2019-02-27T05:17:22.062Z,42.70
2019-02-27T05:19:52.062Z,45.77
2019-02-27T05:22:27.584Z,40.52
2019-02-27T05:24:58.110Z,43.98
2019-02-27T05:27:30.998Z,43.35
2019-02-27T05:30:03.240Z,42.95
2019-02-27T05:32:35.072Z,42.23
2019-02-27T05:35:04.302Z,45.80
2019-02-27T05:37:44.123Z,45.07
2019-02-27T05:40:17.000Z,40.92
2019-02-27T05:42:45.944Z,41.63
2019-02-27T05:45:16.488Z,44.63
2019-02-27T05:47:47.286Z,38.73
2019-02-27T05:50:19.574Z,42.75
2019-02-27T05:52:52.949Z,42.05
2019-02-27T05:55:26.080Z,45.12
2019-02-27T05:58:04.190Z,44.40
2019-02-27T06:00:32.198Z,40.20
2019-02-27T06:03:02.671Z,40.52
2019-02-27T06:05:33.688Z,40.78
2019-02-27T06:08:08.778Z,41.33
2019-02-27T06:10:40.821Z,40.92
2019-02-27T06:13:14.027Z,40.33
2019-02-27T06:15:43.774Z,35.80
2019-02-27T06:18:12.811Z,38.88
2019-02-27T06:20:44.182Z,41.10
2019-02-27T06:23:13.153Z,40.58
2019-02-27T06:25:42.193Z,36.23
2019-02-27T06:28:11.175Z,40.43
2019-02-27T06:30:41.657Z,39.35
2019-02-27T06:33:11.792Z,42.80
2019-02-27T06:35:45.084Z,40.52
2019-02-27T06:38:17.099Z,39.13
2019-02-27T06:40:46.073Z,40.33
2019-02-27T06:43:15.100Z,39.70
2019-02-27T06:45:46.469Z,42.67
2019-02-27T06:48:14.953Z,36.23
2019-02-27T06:50:43.993Z,36.30
2019-02-27T06:53:15.643Z,38.70
2019-02-27T06:55:43.640Z,37.10
2019-02-27T06:58:14.935Z,38.48
2019-02-27T07:00:52.304Z,38.28
2019-02-27T07:03:18.462Z,39.85
2019-02-27T07:05:48.223Z,40.65
2019-02-27T07:08:22.565Z,36.58
2019-02-27T07:10:57.381Z,37.05
2019-02-27T07:13:26.775Z,37.33
2019-02-27T07:15:56.923Z,40.80
2019-02-27T07:18:27.051Z,38.08
2019-02-27T07:23:25.787Z,39.53
2019-02-27T07:25:54.840Z,42.05
2019-02-27T07:28:26.982Z,43.78
2019-02-27T07:30:56.002Z,40.40
2019-02-27T07:33:51.077Z,36.08
2019-02-27T07:36:04.626Z,36.65
2019-02-27T07:38:35.283Z,35.17
2019-02-27T07:41:04.239Z,37.73
2019-02-27T07:43:39.269Z,41.13
2019-02-27T07:46:11.303Z,37.48
2019-02-27T07:48:40.328Z,41.30
2019-02-27T07:51:12.066Z,39.42
2019-02-27T07:53:43.040Z,42.40
2019-02-27T07:56:12.302Z,41.08
2019-02-27T07:58:41.334Z,37.35
2019-02-27T08:01:10.515Z,40.33
2019-02-27T08:03:45.540Z,36.10
2019-02-27T08:06:17.460Z,36.35
2019-02-27T08:08:46.466Z,37.58
2019-02-27T08:11:17.696Z,37.33
2019-02-27T08:13:49.893Z,32.80
2019-02-27T08:16:20.974Z,39.03
2019-02-27T08:18:53.365Z,31.95
2019-02-27T08:21:22.428Z,33.08
2019-02-27T08:23:52.555Z,31.30
2019-02-27T08:26:21.530Z,34.25
2019-02-27T08:28:50.485Z,32.95
2019-02-27T08:31:19.640Z,32.58
2019-02-27T08:33:50.171Z,29.53
2019-02-27T08:36:19.148Z,29.35
2019-02-27T08:38:48.123Z,28.75
2019-02-27T08:41:17.100Z,27.75
2019-02-27T08:43:49.011Z,30.45
2019-02-27T08:46:18.009Z,28.12
2019-02-27T08:51:17.817Z,26.12
2019-02-27T08:53:46.796Z,26.82
2019-02-27T08:56:18.083Z,25.25
2019-02-27T08:58:46.546Z,24.57
2019-02-27T09:01:19.035Z,25.55
2019-02-27T09:03:49.732Z,25.72
2019-02-27T09:06:20.575Z,26.45
2019-02-27T09:08:49.609Z,25.88
2019-02-27T09:11:21.106Z,25.50
2019-02-27T09:13:51.701Z,27.45
2019-02-27T09:16:26.110Z,26.97
2019-02-27T09:18:55.569Z,26.05
2019-02-27T09:21:27.614Z,26.10
2019-02-27T09:23:55.355Z,26.65
2019-02-27T09:26:24.403Z,23.75
2019-02-27T09:28:55.109Z,24.43
2019-02-27T09:31:24.082Z,27.85
2019-02-27T09:33:53.450Z,24.30
2019-02-27T09:36:22.951Z,24.82
2019-02-27T09:38:57.528Z,29.72
2019-02-27T09:41:25.815Z,25.95
2019-02-27T09:43:54.803Z,27.40
2019-02-27T09:46:23.881Z,25.15
2019-02-27T09:48:55.794Z,29.07
2019-02-27T09:51:26.981Z,23.22
2019-02-27T09:53:57.911Z,24.77
2019-02-27T09:56:29.130Z,24.55
2019-02-27T09:58:58.874Z,25.43
2019-02-27T10:01:29.176Z,27.55
2019-02-27T10:04:04.650Z,23.77
2019-02-27T10:06:54.438Z,25.17
2019-02-27T10:09:24.706Z,22.62
2019-02-27T10:11:53.703Z,25.47
2019-02-27T10:14:22.667Z,24.92
2019-02-27T10:16:57.345Z,26.10
2019-02-27T10:19:27.921Z,25.77
2019-02-27T10:22:06.582Z,23.75
2019-02-27T10:24:37.529Z,25.32
2019-02-27T10:27:06.801Z,25.90
2019-02-27T10:29:35.759Z,26.50
2019-02-27T10:32:04.746Z,24.63
2019-02-27T10:34:36.621Z,28.02
2019-02-27T10:37:06.040Z,25.77
2019-02-27T10:39:37.138Z,24.15
2019-02-27T10:42:07.714Z,25.30
2019-02-27T10:44:37.171Z,24.75
2019-02-27T10:47:06.331Z,26.05
2019-02-27T10:49:38.233Z,26.37
2019-02-27T10:52:10.255Z,27.50
2019-02-27T10:54:39.344Z,24.43
2019-02-27T10:57:12.319Z,26.85
2019-02-27T10:59:41.785Z,24.92
2019-02-27T11:02:12.400Z,24.43
2019-02-27T11:04:54.814Z,27.02
2019-02-27T11:07:26.525Z,23.70
2019-02-27T11:09:55.498Z,25.43
2019-02-27T11:12:29.409Z,26.85
2019-02-27T11:15:00.003Z,25.00
2019-02-27T11:17:28.976Z,26.05
2019-02-27T11:19:57.952Z,28.80
2019-02-27T11:22:31.494Z,27.58
2019-02-27T11:24:57.694Z,25.88
2019-02-27T11:27:26.724Z,26.23
2019-02-27T11:29:59.637Z,25.32
2019-02-27T11:32:29.630Z,27.27
2019-02-27T11:35:02.445Z,26.37
2019-02-27T11:37:32.490Z,26.75
2019-02-27T11:40:01.451Z,28.15
2019-02-27T11:42:32.090Z,25.95
2019-02-27T11:45:01.994Z,26.27
2019-02-27T11:47:31.348Z,26.17
2019-02-27T11:50:02.003Z,26.13
2019-02-27T11:52:32.134Z,29.75
2019-02-27T11:55:01.219Z,28.52
2019-02-27T11:57:30.547Z,30.80
2019-02-27T12:00:00.344Z,27.50
2019-02-27T12:02:36.998Z,27.77
2019-02-27T12:05:03.658Z,28.32
2019-02-27T12:07:32.857Z,32.90
2019-02-27T12:10:01.800Z,30.30
2019-02-27T12:16:03.967Z,25.90
2019-02-27T12:18:37.463Z,27.75
2019-02-27T12:21:06.594Z,30.95
2019-02-27T12:23:35.535Z,30.47
2019-02-27T12:26:05.859Z,30.88
2019-02-27T12:28:36.840Z,29.18
2019-02-27T12:31:11.107Z,27.37
2019-02-27T12:33:38.297Z,29.27
2019-02-27T12:36:08.960Z,30.57
2019-02-27T12:38:42.321Z,31.75
2019-02-27T12:41:08.841Z,30.40
2019-02-27T12:43:37.841Z,30.02
2019-02-27T12:46:09.774Z,32.07
2019-02-27T12:48:46.141Z,30.27
2019-02-27T12:51:18.195Z,32.30
2019-02-27T12:53:54.356Z,31.05
2019-02-27T12:56:21.057Z,29.87
2019-02-27T12:58:58.757Z,33.70
2019-02-27T13:01:27.906Z,31.82
2019-02-27T13:03:59.016Z,29.43
2019-02-27T13:06:29.629Z,32.55
2019-02-27T13:08:59.921Z,30.52
2019-02-27T13:11:30.698Z,33.02
2019-02-27T13:14:00.778Z,27.65
2019-02-27T13:16:33.039Z,32.10
2019-02-27T13:19:06.347Z,29.55
2019-02-27T13:21:32.916Z,29.42
2019-02-27T13:24:02.099Z,35.05
2019-02-27T13:26:34.733Z,33.28
2019-02-27T13:29:06.957Z,34.45
2019-02-27T13:31:35.989Z,30.10
2019-02-27T13:34:04.998Z,31.80
2019-02-27T13:36:34.797Z,37.47
2019-02-27T13:39:10.551Z,34.90
2019-02-27T13:41:42.440Z,35.80
2019-02-27T13:44:11.894Z,37.95
2019-02-27T13:46:41.524Z,36.17
2019-02-27T13:49:11.384Z,33.55
2019-02-27T13:51:43.513Z,31.85
2019-02-27T13:54:14.918Z,35.90
2019-02-27T13:56:44.694Z,30.37
2019-02-27T14:01:41.785Z,31.95
2019-02-27T14:04:13.136Z,38.78
2019-02-27T14:06:43.501Z,32.55
2019-02-27T14:09:14.056Z,33.70
2019-02-27T14:11:43.179Z,41.13
2019-02-27T14:14:12.139Z,37.20
2019-02-27T14:16:44.052Z,34.17
2019-02-27T14:19:13.024Z,34.85
2019-02-27T14:21:45.870Z,31.27
2019-02-27T14:24:20.330Z,34.50
2019-02-27T14:26:55.475Z,33.18
2019-02-27T14:29:26.067Z,33.25
2019-02-27T14:31:56.534Z,32.35
2019-02-27T14:34:27.440Z,34.03
2019-02-27T14:36:58.039Z,32.83
2019-02-27T14:39:29.646Z,36.48
2019-02-27T14:41:58.045Z,33.92
2019-02-27T14:44:31.307Z,33.92
2019-02-27T14:47:01.471Z,36.90
2019-02-27T14:52:18.810Z,35.73
2019-02-27T14:54:51.559Z,35.63
2019-02-27T14:57:22.955Z,36.42
2019-02-27T14:59:51.921Z,35.63
2019-02-27T15:02:23.913Z,37.42
2019-02-27T15:04:52.948Z,36.10
2019-02-27T15:07:24.575Z,37.90
2019-02-27T15:09:53.513Z,42.10
2019-02-27T15:12:22.511Z,41.23
2019-02-27T15:14:56.077Z,38.37
2019-02-27T15:17:25.052Z,34.63
2019-02-27T15:19:54.129Z,44.73
2019-02-27T15:22:30.432Z,45.20
2019-02-27T15:25:02.704Z,42.90
2019-02-27T15:27:46.550Z,41.25
2019-02-27T15:30:19.123Z,40.88
2019-02-27T15:32:48.098Z,39.63
2019-02-27T15:35:20.854Z,45.30
2019-02-27T15:37:48.295Z,41.13
2019-02-27T15:40:20.469Z,44.10
2019-02-27T15:42:50.630Z,42.00
2019-02-27T15:45:25.993Z,43.17
2019-02-27T15:47:57.669Z,43.40
2019-02-27T15:50:31.137Z,46.83
2019-02-27T15:53:01.410Z,42.35
2019-02-27T15:55:34.320Z,44.38
2019-02-27T15:58:09.535Z,45.83
2019-02-27T16:00:33.785Z,44.55
2019-02-27T16:03:03.776Z,43.92
2019-02-27T16:05:36.814Z,47.95
2019-02-27T16:08:06.902Z,44.33
2019-02-27T16:10:42.619Z,50.90
2019-02-27T16:13:09.540Z,49.58
2019-02-27T16:15:40.383Z,48.75
2019-02-27T16:18:13.772Z,51.95
2019-02-27T16:20:41.828Z,51.00
2019-02-27T16:23:10.807Z,49.47
2019-02-27T16:25:41.294Z,50.00
2019-02-27T16:38:02.430Z,51.73
2019-02-27T16:40:31.411Z,52.55
2019-02-27T16:43:00.431Z,54.50
2019-02-27T16:45:33.913Z,55.67
2019-02-27T16:48:02.274Z,53.60
2019-02-27T16:50:31.560Z,53.33
2019-02-27T16:53:00.511Z,58.38
2019-02-27T16:55:29.789Z,58.03
2019-02-27T16:58:01.821Z,54.50
2019-02-27T17:00:33.180Z,55.03
2019-02-27T17:03:04.159Z,57.13
2019-02-27T17:05:34.559Z,54.53
2019-02-27T17:08:03.591Z,54.40
2019-02-27T17:10:34.171Z,53.97
2019-02-27T17:13:03.531Z,53.95
2019-02-27T17:15:35.931Z,62.33
2019-02-27T17:18:07.827Z,56.05
2019-02-27T17:20:37.006Z,58.78
2019-02-27T17:23:10.386Z,62.47
2019-02-27T17:25:38.231Z,58.65
2019-02-27T17:28:11.675Z,59.83
2019-02-27T17:30:42.095Z,54.75
2019-02-27T17:33:11.128Z,58.13
2019-02-27T17:35:45.085Z,59.35
2019-02-27T17:38:16.182Z,57.53
2019-02-27T17:40:47.071Z,58.50
2019-02-27T17:43:16.058Z,56.55
2019-02-27T17:45:47.619Z,57.23
2019-02-27T17:48:16.551Z,55.43
2019-02-27T17:50:52.230Z,58.63
2019-02-27T17:53:24.270Z,57.65
2019-02-27T17:55:53.278Z,56.05
2019-02-27T17:58:22.297Z,57.00
2019-02-27T18:01:04.898Z,58.92
2019-02-27T18:03:36.645Z,58.30
2019-02-27T18:06:12.275Z,61.42
2019-02-27T18:08:41.309Z,64.42
2019-02-27T18:11:12.284Z,66.62
2019-02-27T18:13:41.510Z,57.75
2019-02-27T18:16:10.569Z,59.77
2019-02-27T18:18:43.097Z,63.48
2019-02-27T18:21:13.598Z,65.37
2019-02-27T18:23:44.853Z,64.03
2019-02-27T18:26:17.844Z,62.60
2019-02-27T18:28:48.791Z,60.58
2019-02-27T18:31:17.482Z,61.13
2019-02-27T18:33:49.498Z,66.17
2019-02-27T18:36:18.804Z,63.90
2019-02-27T18:38:49.328Z,64.05
2019-02-27T18:41:21.600Z,65.03
2019-02-27T18:43:50.602Z,63.17
2019-02-27T18:46:24.507Z,69.15
2019-02-27T18:48:57.764Z,67.05
2019-02-27T18:51:26.788Z,67.12
2019-02-27T18:53:55.903Z,63.78
2019-02-27T18:56:24.852Z,66.73
2019-02-27T18:58:55.594Z,65.45
2019-02-27T19:01:24.998Z,63.38
2019-02-27T19:04:01.223Z,71.05
2019-02-27T19:06:29.622Z,70.42
2019-02-27T19:08:59.516Z,65.32
2019-02-27T19:11:29.532Z,68.70
2019-02-27T19:13:58.514Z,65.78
2019-02-27T19:16:30.548Z,63.87
2019-02-27T19:18:59.580Z,69.10
2019-02-27T19:21:32.715Z,71.72
2019-02-27T19:24:00.859Z,67.75
2019-02-27T19:26:29.927Z,69.15
2019-02-27T19:29:03.982Z,73.70
2019-02-27T19:31:35.583Z,71.87
2019-02-27T19:34:07.359Z,73.37
2019-02-27T19:36:36.884Z,69.45
2019-02-27T19:39:06.826Z,70.83
2019-02-27T19:41:41.014Z,74.85
2019-02-27T19:44:10.022Z,70.40
2019-02-27T19:46:47.433Z,72.22
2019-02-27T19:49:17.947Z,74.47
2019-02-27T19:51:48.585Z,71.42
2019-02-27T19:54:19.857Z,72.35
2019-02-27T19:56:49.446Z,72.22
2019-02-27T19:59:24.677Z,72.50
2019-02-27T20:01:55.225Z,76.02
2019-02-27T20:04:27.135Z,75.87
2019-02-27T20:06:58.371Z,74.72
2019-02-27T20:09:31.399Z,74.80
2019-02-27T20:12:01.471Z,70.17
2019-02-27T20:16:58.879Z,74.42
2019-02-27T20:19:29.100Z,79.53
2019-02-27T20:22:04.812Z,73.97
2019-02-27T20:24:35.591Z,79.20
2019-02-27T20:27:07.839Z,80.77
2019-02-27T20:29:40.586Z,79.75
2019-02-27T20:32:08.000Z,77.65
2019-02-27T20:34:37.219Z,77.35
2019-02-27T20:37:10.507Z,77.67
2019-02-27T20:39:42.172Z,75.20
2019-02-27T20:42:14.454Z,75.25
2019-02-27T20:44:43.682Z,80.92
2019-02-27T20:47:12.654Z,74.00
2019-02-27T20:52:14.950Z,78.83
2019-02-27T20:54:46.119Z,79.03
2019-02-27T20:57:15.439Z,73.30
2019-02-27T20:59:44.375Z,78.10
2019-02-27T21:02:13.356Z,70.35
2019-02-27T21:07:22.517Z,70.25
2019-02-27T21:09:53.772Z,72.37
2019-02-27T21:12:22.739Z,71.12
2019-02-27T21:14:51.702Z,74.03
2019-02-27T21:17:21.793Z,76.90
2019-02-27T21:19:52.701Z,70.95
2019-02-27T21:22:27.784Z,76.45
2019-02-27T21:24:56.334Z,73.83
2019-02-27T21:27:25.302Z,72.37
2019-02-27T21:29:55.920Z,72.95
2019-02-27T21:32:24.890Z,76.95
2019-02-27T21:34:56.846Z,75.90
2019-02-27T21:37:25.869Z,81.65
2019-02-27T21:39:57.110Z,77.22
2019-02-27T21:42:28.642Z,78.67
2019-02-27T21:45:00.057Z,77.75
2019-02-27T21:47:34.620Z,73.80
2019-02-27T21:50:03.686Z,76.53
2019-02-27T21:52:32.480Z,80.80
2019-02-27T21:55:09.407Z,75.57
2019-02-27T21:57:36.842Z,73.40
2019-02-27T22:00:14.002Z,77.50
2019-02-27T22:02:51.568Z,68.42
2019-02-27T22:05:20.627Z,76.92
2019-02-27T22:07:51.164Z,73.07
2019-02-27T22:10:24.041Z,70.57
2019-02-27T22:12:53.042Z,73.28
2019-02-27T22:15:33.566Z,75.95
2019-02-27T22:18:02.688Z,70.20
2019-02-27T22:20:32.685Z,78.00
2019-02-27T22:25:33.360Z,76.92
2019-02-27T22:28:04.020Z,73.57
2019-02-27T22:30:36.830Z,78.52
2019-02-27T22:33:14.820Z,78.40
2019-02-27T22:35:43.806Z,77.08
2019-02-27T22:38:13.040Z,77.60
2019-02-27T22:40:41.985Z,80.93
2019-02-27T22:43:10.948Z,78.75
2019-02-27T22:45:44.091Z,78.33
2019-02-27T22:48:16.119Z,80.70
2019-02-27T22:50:49.018Z,84.00
2019-02-27T22:53:18.261Z,79.82
2019-02-27T22:55:47.203Z,86.77
2019-02-27T22:58:16.225Z,85.67
2019-02-27T23:01:00.307Z,92.15
2019-02-27T23:03:32.770Z,81.00
2019-02-27T23:06:02.377Z,85.95
2019-02-27T23:11:04.729Z,91.60
2019-02-27T23:13:37.733Z,86.60
2019-02-27T23:16:07.110Z,86.00
2019-02-27T23:18:40.279Z,87.55
2019-02-27T23:21:21.687Z,93.85
2019-02-27T23:23:50.877Z,82.55
2019-02-27T23:26:21.833Z,94.27
2019-02-27T23:28:52.669Z,100.55
2019-02-27T23:31:23.395Z,91.72
2019-02-27T23:33:52.383Z,85.35
2019-02-27T23:36:22.765Z,85.87
2019-02-27T23:38:51.915Z,95.77
2019-02-27T23:41:23.974Z,92.90
2019-02-27T23:43:53.977Z,95.62
2019-02-27T23:46:23.507Z,94.83
2019-02-27T23:48:52.817Z,95.53
2019-02-27T23:51:27.025Z,97.72
2019-02-27T23:54:01.328Z,94.50
2019-02-27T23:56:29.927Z,97.35
2019-02-27T23:59:02.308Z,100.92
